Earl Fields Memorial Airport

About
Name: Earl Fields Memorial Airport
Identifier:  POF/KPOF
Local Time:  20. Aug 08:38 CDT
Location
Poplar Bluff
  United States

Flights per Day
0 flights
Distance: 334km (207mi)
Punctuality
50% (0 flights per day delayed)
Delay Average: 15 minutes
Current Weather
 26 C (Humidity: 88%)
  0kt (0km/h / 0mph) from 0°
  8km (5 mi.)
 Mist
 METAR KPOF 201253Z AUTO 00000KT 5SM BR CLR 26/24 A3005 RMK AO2 SLP168 T02610244

Current Flights

Departures
Number Departure To Airline
Arrivals
Number Arrival From Airline

Current Delays

Departures
N/A
Arrivals
N/A

Destinations

Top Destinations
Airport Flights
per week
Seats
per week
  Rochester (RST) 1 - 0 0
  St. Louis (SUS) 1 - 0 0
  Destin (DSI) 1 - 0 0
  Panama City (ECP) 1 - 0 0
  Cape Girardeau (CGI) 0 - 0 0
  Sioux Falls (FSD) 0 - 0 0
  Wichita (ICT) 0 - 0 0
  Birmingham (BHM) 0 - 0 0
  Sugar Land (SGR) 0 - 0 0
  Atlanta (PDK) 0 - 0 0
  Memphis (MEM) 0 - 0 0
  Huntington (HTS) 0 - 0 0
  Kansas City (MKC) 0 - 0 0

Airlines & Planes

Top Airlines
Airline Flights
per Day
Seats
per Day
EagleMed 0 -
Nordwind Airlines 0 -
  Nolinor Aviation 0 -
  Flybe Nordic 0 -
Top Plane Types
Model Flights Seats
Beech E90 King Air 0.5/day - 0
Beech B200 Super King Air 0.5/day - 0
Cessna C182 0.0/day - 0